Alvada, Ohio
Current Conditions -  °F | °C
As of 6:53 PM on Thursday 18 Dec 2014 (Local Time) from KFDY Reporting Station
Overcast Overcast  
Wind Chill: 20°   Ceiling: 1100
Heat Index: 29°   Visibility: 7mi
Dew Point: 25°   Wind: 9mph
Humidity: 85%   Direction: 270°W
Pressure: 30.19"   Gusts: NA
Location:  41.05°N, 83.4°W
Report Text: KFDY 182353Z AUTO 27008KT 7SM OVC011 M02/M04 A3019 RMK AO2 SLP231 T10171039 11006 21017 53003
Loading
Personal Weather Stations






























Interactive Weather Map New forecast layout! Learn more

10-Day Weather Forecast

Advertisements
Track Severe Weather on mobile